Time;durP1;ratioP1;P1;durP2;ratioP2;P2;SDS_P1;SDS_P2;PMS_P1;PMS_P2;Temp;Humidity;BMP_temperature;BMP_pressure;BME280_temperature;BME280_humidity;BME280_pressure;Samples;Min_cycle;Max_cycle;Signal;HPM_P1;HPM_P2
2023/04/27 00:01:40;;;;;;;13.80;7.35;;;;;;;1.39;70.91;100287.86;1829847;77;25648;-77
2023/04/27 00:04:06;;;;;;;15.53;7.00;;;;;;;1.36;71.16;100285.15;1830005;78;25560;-77
2023/04/27 00:06:33;;;;;;;12.13;6.28;;;;;;;1.32;71.48;100287.24;1830104;78;25361;-76
2023/04/27 00:09:01;;;;;;;18.62;7.70;;;;;;;1.29;71.75;100284.03;1830053;78;25552;-76
2023/04/27 00:11:27;;;;;;;10.80;6.15;;;;;;;1.28;72.20;100284.27;1830389;78;27290;-76
2023/04/27 00:13:55;;;;;;;17.50;6.28;;;;;;;1.24;72.05;100281.80;1830998;78;25342;-76
2023/04/27 00:16:22;;;;;;;18.37;7.15;;;;;;;1.20;72.05;100280.70;1831247;78;25519;-76
2023/04/27 00:18:49;;;;;;;15.88;6.15;;;;;;;1.17;72.18;100281.98;1830736;78;25324;-76
2023/04/27 00:21:16;;;;;;;15.25;6.45;;;;;;;1.13;72.20;100288.86;1829976;77;25421;-76
2023/04/27 00:23:42;;;;;;;16.57;7.08;;;;;;;1.08;72.18;100284.27;1829910;78;27456;-76
2023/04/27 00:26:08;;;;;;;22.82;7.17;;;;;;;1.06;72.61;100285.58;1829779;77;25584;-75
2023/04/27 00:28:34;;;;;;;14.30;5.90;;;;;;;1.03;72.59;100286.06;1829861;77;29468;-75
2023/04/27 00:31:02;;;;;;;15.90;6.97;;;;;;;0.99;72.54;100283.59;1829789;78;25475;-75
2023/04/27 00:33:29;;;;;;;17.10;7.00;;;;;;;0.95;72.63;100291.27;1829975;78;25528;-74
2023/04/27 00:36:01;;;;;;;15.65;7.08;;;;;;;0.90;72.75;100300.02;1829966;77;27623;-73
2023/04/27 00:38:30;;;;;;;13.95;6.12;;;;;;;0.85;72.56;100302.60;1828640;77;25597;-73
2023/04/27 00:41:05;;;;;;;9.30;4.42;;;;;;;0.82;72.80;100306.25;1823926;78;25452;-73
2023/04/27 00:43:36;;;;;;;16.48;6.58;;;;;;;0.78;72.74;100301.94;1823742;78;25807;-74
2023/04/27 00:46:02;;;;;;;14.65;6.95;;;;;;;0.72;71.71;100301.59;1750761;81;25458;-74
2023/04/27 00:48:29;;;;;;;19.40;8.50;;;;;;;0.67;71.60;100302.85;1776358;80;27480;-74
2023/04/27 00:50:55;;;;;;;23.40;9.10;;;;;;;0.64;72.32;100303.33;1726570;81;25402;-74
2023/04/27 00:53:22;;;;;;;20.83;9.50;;;;;;;0.62;72.80;100309.43;1776339;80;29725;-73
2023/04/27 00:55:48;;;;;;;22.42;9.90;;;;;;;0.59;72.83;100312.57;1776277;80;25596;-73
2023/04/27 00:58:15;;;;;;;31.90;12.43;;;;;;;0.54;73.24;100310.63;1776336;80;25183;-74
2023/04/27 01:00:42;;;;;;;46.65;16.23;;;;;;;0.52;72.81;100307.41;1776337;80;27520;-73
2023/04/27 01:03:08;;;;;;;42.15;15.18;;;;;;;0.49;73.37;100311.34;1776281;80;25374;-74
2023/04/27 01:05:37;;;;;;;36.90;14.00;;;;;;;0.45;72.91;100318.73;1776346;80;25542;-74
2023/04/27 01:08:04;;;;;;;35.92;11.30;;;;;;;0.40;73.06;100312.80;1756207;81;25778;-75
2023/04/27 01:10:31;;;;;;;24.45;9.78;;;;;;;0.37;73.44;100313.27;1776376;80;25540;-76
2023/04/27 01:12:57;;;;;;;26.25;9.58;;;;;;;0.33;72.99;100320.14;1756239;81;27615;-75
2023/04/27 01:15:23;;;;;;;21.73;8.93;;;;;;;0.29;72.99;100320.31;1776273;80;25606;-76
2023/04/27 01:18:00;;;;;;;15.90;7.55;;;;;;;0.26;72.64;100313.63;1776335;80;25489;-74
2023/04/27 01:20:29;;;;;;;24.95;8.58;;;;;;;0.23;73.00;100319.42;1775754;80;25472;-73
2023/04/27 01:22:56;;;;;;;15.43;6.80;;;;;;;;;;1776602;80;25465;-74
2023/04/27 01:25:22;;;;;;;15.20;7.05;;;;;;;0.18;73.92;100322.00;1776351;80;27517;-74
2023/04/27 01:27:49;;;;;;;14.47;6.97;;;;;;;0.14;74.01;100322.20;1776266;80;25483;-73
2023/04/27 01:30:16;;;;;;;22.37;8.78;;;;;;;0.10;74.17;100321.87;1756234;81;25398;-73
2023/04/27 01:32:42;;;;;;;15.03;6.67;;;;;;;0.09;74.32;100322.11;1776294;80;25608;-73
2023/04/27 01:35:09;;;;;;;23.70;7.50;;;;;;;0.04;74.31;100321.48;1776363;80;25580;-73
2023/04/27 01:37:36;;;;;;;14.40;6.83;;;;;;;0.01;73.82;100325.95;1776333;80;28010;-73
2023/04/27 01:40:05;;;;;;;18.55;6.42;;;;;;;-0.03;73.96;100318.97;1787549;80;25653;-73
2023/04/27 01:42:31;;;;;;;16.23;5.73;;;;;;;-0.05;74.45;100330.88;1762133;81;25567;-73
2023/04/27 01:44:59;;;;;;;15.15;7.58;;;;;;;-0.09;74.34;100330.55;1793157;80;26062;-73
2023/04/27 01:47:27;;;;;;;12.85;6.30;;;;;;;-0.12;74.59;100324.90;1761880;81;25619;-73
2023/04/27 01:49:54;;;;;;;17.67;6.58;;;;;;;-0.15;75.00;100330.69;1793188;80;27475;-73
2023/04/27 01:52:20;;;;;;;9.98;6.35;;;;;;;-0.18;74.72;100333.84;1761771;81;25468;-73
2023/04/27 01:54:46;;;;;;;15.05;6.97;;;;;;;-0.21;75.07;100335.90;1793197;80;25587;-73
2023/04/27 01:57:13;;;;;;;11.33;5.67;;;;;;;-0.24;74.72;100336.40;1761840;81;26007;-73
2023/04/27 01:59:39;;;;;;;21.55;7.17;;;;;;;-0.27;74.86;100328.09;1793173;80;25510;-73
2023/04/27 02:02:05;;;;;;;12.65;5.75;;;;;;;-0.29;74.96;100335.47;1761890;81;28350;-72
2023/04/27 02:04:32;;;;;;;16.50;6.83;;;;;;;-0.31;75.44;100333.05;1773205;80;25550;-72
2023/04/27 02:06:59;;;;;;;11.93;6.17;;;;;;;-0.33;75.44;100327.16;1761870;81;25551;-72
2023/04/27 02:09:25;;;;;;;43.58;39.50;;;;;;;-0.36;75.59;100332.94;1793163;80;25468;-72
2023/04/27 02:11:52;;;;;;;88.25;81.12;;;;;;;-0.41;75.70;100337.66;1761908;81;25625;-73
2023/04/27 02:14:18;;;;;;;86.10;78.30;;;;;;;-0.43;75.71;100334.93;1793737;80;27468;-72
2023/04/27 02:16:44;;;;;;;87.05;79.97;;;;;;;-0.45;75.75;100332.50;1761821;81;25869;-72
2023/04/27 02:19:10;;;;;;;81.60;75.28;;;;;;;-0.45;75.90;100335.16;1773209;80;25408;-72
2023/04/27 02:21:40;;;;;;;86.25;79.50;;;;;;;-0.51;75.85;100325.48;1761803;81;25543;-73
2023/04/27 02:24:06;;;;;;;81.97;75.47;;;;;;;-0.52;75.91;100325.19;1773276;80;25465;-72
2023/04/27 02:26:33;;;;;;;83.47;77.33;;;;;;;-0.55;76.19;100319.54;1761995;81;27590;-72
2023/04/27 02:28:59;;;;;;;87.72;81.08;;;;;;;;;;1793241;80;25401;-72
2023/04/27 02:31:25;;;;;;;83.45;77.32;;;;;;;;;;1793332;80;25524;-71
2023/04/27 02:33:53;;;;;;;84.47;78.28;;;;;;;;;;1793341;78;25592;-75
2023/04/27 02:36:19;;;;;;;84.90;78.62;;;;;;;;;;1793389;80;25404;-74
2023/04/27 02:38:45;;;;;;;84.77;78.13;;;;;;;;;;1793313;80;27548;-73
2023/04/27 02:41:11;;;;;;;81.02;75.12;;;;;;;;;;1793259;80;25530;-74
2023/04/27 02:43:37;;;;;;;86.20;79.73;;;;;;;;;;1793352;80;34748;-74
2023/04/27 02:46:04;;;;;;;83.72;77.42;;;;;;;;;;1793314;80;25507;-74
2023/04/27 02:48:31;;;;;;;86.92;80.12;;;;;;;;;;1793355;80;25514;-74
2023/04/27 02:50:58;;;;;;;85.92;79.60;;;;;;;;;;1793326;80;27462;-74
2023/04/27 02:53:24;;;;;;;83.60;77.77;;;;;;;;;;1793183;80;29763;-74
2023/04/27 02:55:51;;;;;;;82.37;76.03;;;;;;;;;;1793360;80;25587;-73
2023/04/27 02:58:17;;;;;;;77.40;72.00;;;;;;;;;;1793270;80;25471;-73
2023/04/27 03:00:45;;;;;;;58.55;54.00;;;;;;;;;;1793490;80;25610;-73
2023/04/27 03:03:11;;;;;;;79.13;73.07;;;;;;;;;;1793306;80;27510;-73
2023/04/27 03:05:38;;;;;;;81.97;75.93;;;;;;;;;;1793248;80;25460;-72
2023/04/27 03:08:04;;;;;;;42.43;39.37;;;;;;;;;;1793308;80;25639;-72
2023/04/27 03:10:30;;;;;;;72.90;67.80;;;;;;;;;;1793267;80;26044;-73
2023/04/27 03:12:56;;;;;;;83.93;77.63;;;;;;;;;;1793339;80;25567;-73
2023/04/27 03:15:22;;;;;;;83.50;77.30;;;;;;;;;;1793349;80;32666;-73
2023/04/27 03:17:48;;;;;;;85.97;79.40;;;;;;;;;;1793176;80;25404;-72
2023/04/27 03:20:15;;;;;;;42.00;39.03;;;;;;;;;;1793288;80;25582;-72
2023/04/27 03:22:44;;;;;;;80.03;74.43;;;;;;;;;;1793261;80;25590;-72
2023/04/27 03:25:10;;;;;;;63.02;58.17;;;;;;;;;;1793484;78;25506;-70
2023/04/27 03:27:36;;;;;;;84.62;77.70;;;;;;;;;;1793292;80;27459;-70
2023/04/27 03:30:03;;;;;;;81.37;75.40;;;;;;;;;;1793217;80;25432;-70
2023/04/27 03:32:29;;;;;;;84.10;77.57;;;;;;;;;;1793281;80;25384;-71
2023/04/27 03:34:55;;;;;;;80.43;74.23;;;;;;;;;;1790214;80;25590;-70
2023/04/27 03:37:21;;;;;;;81.87;76.10;;;;;;;;;;1793290;80;25606;-70
2023/04/27 03:39:47;;;;;;;84.10;77.93;;;;;;;;;;1793173;80;32776;-72
2023/04/27 03:42:13;;;;;;;72.27;67.27;;;;;;;;;;1793233;80;25554;-69
2023/04/27 03:44:40;;;;;;;85.33;78.33;;;;;;;;;;1793329;80;25488;-69
2023/04/27 03:47:08;;;;;;;36.20;33.93;;;;;;;;;;1793303;80;25531;-70
2023/04/27 03:49:36;;;;;;;;;;;;;;;;;;1795985;80;25436;-71
2023/04/27 03:52:04;;;;;;;64.73;60.63;;;;;;;;;;1793224;80;27431;-70
2023/04/27 03:54:31;;;;;;;21.50;20.05;;;;;;;;;;1793289;80;25791;-71
2023/04/27 03:56:58;;;;;;;59.73;55.60;;;;;;;;;;1793335;78;25298;-71
2023/04/27 03:59:29;;;;;;;12.15;8.28;;;;;;;;;;1793228;80;26066;-71
2023/04/27 04:01:56;;;;;;;87.92;80.97;;;;;;;;;;1792014;80;25531;-71
2023/04/27 04:04:24;;;;;;;87.20;80.35;;;;;;;;;;1793271;80;27404;-71
2023/04/27 04:06:51;;;;;;;83.20;76.77;;;;;;;;;;1793190;80;25564;-71
2023/04/27 04:09:18;;;;;;;84.57;77.93;;;;;;;;;;1793277;80;25417;-72
2023/04/27 04:11:45;;;;;;;85.33;78.03;;;;;;;;;;1793229;80;26164;-72
2023/04/27 04:14:12;;;;;;;83.83;77.30;;;;;;;;;;1793299;80;25433;-72
2023/04/27 04:16:39;;;;;;;88.60;81.20;;;;;;;;;;1793282;80;27330;-72
2023/04/27 04:19:06;;;;;;;77.13;71.20;;;;;;;;;;1793137;80;25301;-72
2023/04/27 04:21:33;;;;;;;87.30;79.83;;;;;;;;;;1793322;80;25324;-73
2023/04/27 04:24:00;;;;;;;86.43;79.73;;;;;;;;;;1793246;80;25529;-73
2023/04/27 04:26:27;;;;;;;84.67;77.93;;;;;;;;;;1793366;80;25502;-73
2023/04/27 04:28:54;;;;;;;84.70;77.87;;;;;;;;;;1793365;80;27394;-73
2023/04/27 04:31:22;;;;;;;88.47;80.50;;;;;;;;;;1793200;80;25554;-74
2023/04/27 04:33:50;;;;;;;9.13;8.67;;;;;;;;;;1794003;80;25365;-73
2023/04/27 04:36:18;;;;;;;38.63;29.90;;;;;;;;;;1793743;80;25947;-73
2023/04/27 04:38:46;;;;;;;84.27;77.60;;;;;;;;;;1793509;80;25318;-72
2023/04/27 04:41:13;;;;;;;56.30;52.53;;;;;;;;;;1781339;78;27399;-72
2023/04/27 04:43:41;;;;;;;48.57;44.90;;;;;;;;;;1776328;80;25354;-72
2023/04/27 04:46:08;;;;;;;8.00;7.60;;;;;;;;;;1776424;80;25119;-72
2023/04/27 04:48:35;;;;;;;15.50;14.57;;;;;;;;;;1776314;80;25534;-71
2023/04/27 04:51:05;;;;;;;9.93;9.43;;;;;;;;;;1776392;80;25107;-71
2023/04/27 04:56:14;;;;;;;88.53;81.60;;;;;;;1.26;83.41;100412.93;1905556;74;32135;-71
2023/04/27 04:58:41;;;;;;;87.63;80.70;;;;;;;1.31;83.78;100409.01;1860665;77;25551;-71
2023/04/27 05:01:08;;;;;;;83.43;76.83;;;;;;;1.46;83.55;100409.77;1861161;77;27465;-72
2023/04/27 05:03:34;;;;;;;85.73;79.23;;;;;;;1.57;83.45;100407.53;1861187;76;25409;-72
2023/04/27 05:06:01;;;;;;;89.27;82.27;;;;;;;1.72;83.45;100411.44;1860187;76;25138;-72
2023/04/27 05:08:27;;;;;;;88.83;81.60;;;;;;;1.84;83.23;100417.48;1859899;76;25521;-70
2023/04/27 05:10:55;;;;;;;86.17;79.17;;;;;;;1.93;82.79;100409.31;1859951;77;25536;-73
2023/04/27 05:13:23;;;;;;;86.40;79.65;;;;;;;2.03;82.57;100413.98;1859913;76;27461;-73
2023/04/27 05:15:51;;;;;;;86.47;79.70;;;;;;;2.11;82.35;100417.55;1859837;77;25331;-73
2023/04/27 05:18:18;;;;;;;93.57;86.13;;;;;;;0.42;82.48;100021.96;1859885;77;25374;-72
2023/04/27 05:20:44;;;;;;;86.50;79.10;;;;;;;;;;1859867;76;25516;-73
2023/04/27 05:23:14;;;;;;;91.53;83.42;;;;;;;;;;1860604;77;25370;-79
2023/04/27 05:25:42;;;;;;;85.62;78.60;;;;;;;;;;1861363;76;27578;-77
2023/04/27 05:28:10;;;;;;;84.70;77.93;;;;;;;;;;1859926;77;26005;-78
2023/04/27 05:30:37;;;;;;;87.80;80.77;;;;;;;;;;1859984;77;25595;-75
2023/04/27 05:33:04;;;;;;;15.37;14.23;;;;;;;;;;1859866;76;25558;-76
2023/04/27 05:35:32;;;;;;;31.62;27.27;;;;;;;;;;1859907;77;25498;-76
2023/04/27 05:37:59;;;;;;;22.37;12.10;;;;;;;;;;1859272;76;27530;-77
2023/04/27 05:40:25;;;;;;;22.62;11.15;;;;;;;;;;1858591;77;25661;-77
2023/04/27 05:42:51;;;;;;;20.10;10.40;;;;;;;;;;1858632;77;25727;-78
2023/04/27 05:45:17;;;;;;;21.95;11.38;;;;;;;;;;1858559;76;35363;-76
2023/04/27 05:47:43;;;;;;;20.43;10.58;;;;;;;;;;1858421;76;25729;-75
2023/04/27 05:50:10;;;;;;;23.05;12.10;;;;;;;;;;1858389;76;27492;-75
2023/04/27 05:52:36;;;;;;;20.50;10.88;;;;;;;;;;1858444;77;25577;-76
2023/04/27 05:55:03;;;;;;;75.45;69.03;;;;;;;;;;1862139;76;25510;-76
2023/04/27 05:57:30;;;;;;;93.27;85.67;;;;;;;;;;1866167;76;25743;-76
2023/04/27 05:59:56;;;;;;;72.08;66.17;;;;;;;;;;1866255;76;25390;-75
2023/04/27 06:02:22;;;;;;;89.00;82.10;;;;;;;;;;1866200;76;27530;-75
2023/04/27 06:04:48;;;;;;;20.30;10.98;;;;;;;;;;1866171;76;25540;-76
2023/04/27 06:07:15;;;;;;;16.62;9.53;;;;;;;;;;1865730;76;25495;-76
2023/04/27 06:09:41;;;;;;;91.82;84.52;;;;;;;;;;1865544;76;25443;-75
2023/04/27 06:12:08;;;;;;;69.72;64.00;;;;;;;;;;1865585;76;32530;-74
2023/04/27 06:14:36;;;;;;;89.07;81.42;;;;;;;;;;1865569;76;27509;-73
2023/04/27 06:17:03;;;;;;;88.07;80.62;;;;;;;;;;1865592;76;25343;-74
2023/04/27 06:19:29;;;;;;;91.50;84.47;;;;;;;;;;1865647;76;25488;-73
2023/04/27 06:21:55;;;;;;;87.07;80.27;;;;;;;;;;1865634;76;25515;-74
2023/04/27 06:24:22;;;;;;;85.22;79.12;;;;;;;;;;1865624;76;25361;-73
2023/04/27 06:26:56;;;;;;;85.53;79.15;;;;;;;;;;1865611;76;28167;-76
2023/04/27 06:29:22;;;;;;;83.52;76.90;;;;;;;;;;1847876;77;25627;-75
2023/04/27 06:31:48;;;;;;;84.30;77.67;;;;;;;;;;1847985;77;25558;-77
2023/04/27 06:34:14;;;;;;;84.27;77.80;;;;;;;;;;1847927;77;25597;-73
2023/04/27 06:36:41;;;;;;;88.20;80.73;;;;;;;;;;1847911;77;25731;-73
2023/04/27 06:41:38;;;;;;;93.47;86.70;;;;;;;;;;1702096;83;25602;-73
2023/04/27 06:44:05;;;;;;;36.98;33.60;;;;;;;;;;1722138;83;25507;-74
2023/04/27 06:46:32;;;;;;;47.58;43.58;;;;;;;;;;1722224;83;25703;-75
2023/04/27 06:49:00;;;;;;;57.43;52.30;;;;;;;;;;1722266;83;25517;-76
2023/04/27 06:51:27;;;;;;;20.00;9.38;;;;;;;;;;1722626;83;27351;-76
2023/04/27 06:53:56;;;;;;;15.80;8.45;;;;;;;;;;1738099;81;25699;-79
2023/04/27 06:56:23;;;;;;;14.93;7.83;;;;;;;;;;1752851;81;25514;-76
2023/04/27 06:58:50;;;;;;;14.38;8.43;;;;;;;;;;1751968;81;25531;-76
2023/04/27 07:03:09;;;;;;;17.67;7.87;;;;;;;13.36;55.90;100458.56;1887149;76;25517;-73
2023/04/27 07:05:36;;;;;;;15.90;7.58;;;;;;;13.59;55.26;100461.87;1858222;77;25356;-76
2023/04/27 07:08:02;;;;;;;12.20;7.17;;;;;;;13.74;53.03;100457.80;1858158;77;27518;-70
2023/04/27 07:10:29;;;;;;;15.20;7.28;;;;;;;13.77;51.91;100462.05;1858070;77;25171;-74
2023/04/27 07:12:55;;;;;;;15.43;7.00;;;;;;;13.91;52.21;100465.91;1788202;80;25529;-77
2023/04/27 07:15:22;;;;;;;15.65;8.20;;;;;;;14.12;50.60;100467.30;1820480;78;25530;-75
2023/04/27 07:17:55;;;;;;;13.78;7.75;;;;;;;14.18;50.67;100467.36;1788220;79;25461;-75
2023/04/27 07:20:23;;;;;;;14.30;7.30;;;;;;;14.49;50.67;100468.11;1820488;78;27596;-77
2023/04/27 07:22:49;;;;;;;14.18;6.65;;;;;;;14.88;50.83;100461.45;1787995;80;25453;-76
2023/04/27 07:25:18;;;;;;;9.80;5.10;;;;;;;15.29;50.00;100467.16;1820504;78;25399;-78
2023/04/27 07:27:45;;;;;;;10.43;5.70;;;;;;;15.61;48.91;100467.44;1788195;80;25583;-77
2023/04/27 07:30:13;;;;;;;8.58;5.80;;;;;;;15.84;47.78;100470.00;1820457;78;25441;-77
2023/04/27 07:32:40;;;;;;;12.82;5.90;;;;;;;16.11;46.97;100471.04;1788579;80;28156;-76
2023/04/27 07:35:08;;;;;;;19.35;6.35;;;;;;;16.35;46.01;100470.22;1820880;78;25381;-76
2023/04/27 07:37:37;;;;;;;11.43;6.37;;;;;;;16.55;45.77;100471.18;1788344;80;25589;-79
2023/04/27 07:40:13;;;;;;;11.40;6.42;;;;;;;16.78;45.29;100474.20;1821268;78;25535;-78
2023/04/27 07:42:36;;;;;;;11.90;6.33;;;;;;;16.94;44.03;100470.18;1785856;80;25439;-77
2023/04/27 07:45:04;;;;;;;14.85;5.55;;;;;;;17.06;43.68;100466.60;1820509;78;27503;-77
2023/04/27 07:47:31;;;;;;;18.77;5.95;;;;;;;17.15;42.58;100470.78;1787971;80;25674;-78
2023/04/27 07:49:57;;;;;;;14.15;5.70;;;;;;;17.15;41.69;100470.78;1820461;78;25507;-78
2023/04/27 07:52:23;;;;;;;10.35;5.50;;;;;;;17.22;41.54;100463.92;1788284;80;25444;-79
2023/04/27 07:54:49;;;;;;;11.00;6.05;;;;;;;17.48;42.63;100465.58;1821373;78;25606;-79
2023/04/27 07:57:16;;;;;;;11.65;5.75;;;;;;;17.89;42.46;100466.25;1788761;80;27472;-78
2023/04/27 07:59:42;;;;;;;10.20;5.45;;;;;;;18.23;41.83;100467.99;1820593;78;25601;-78
2023/04/27 08:02:08;;;;;;;10.98;5.62;;;;;;;18.35;40.03;100468.45;1787588;80;25334;-78
2023/04/27 08:04:35;;;;;;;7.33;4.60;;;;;;;18.40;39.75;100470.91;1820492;78;25709;-75
2023/04/27 08:07:01;;;;;;;9.63;5.28;;;;;;;18.55;39.15;100471.23;1788513;80;25553;-77
2023/04/27 08:09:27;;;;;;;7.50;5.03;;;;;;;18.70;39.00;100470.97;1820682;78;27542;-75
2023/04/27 08:11:53;;;;;;;9.93;5.30;;;;;;;18.76;38.39;100483.21;1788249;80;25561;-79
2023/04/27 08:14:20;;;;;;;13.53;5.47;;;;;;;18.83;38.17;100486.94;1820154;78;25518;-76
2023/04/27 08:16:47;;;;;;;7.83;5.30;;;;;;;18.93;38.21;100475.95;1787630;80;25887;-78
2023/04/27 08:19:15;;;;;;;10.03;5.83;;;;;;;19.12;37.76;100475.17;1820040;78;25517;-84
2023/04/27 08:21:41;;;;;;;8.60;4.78;;;;;;;19.25;37.11;100473.63;1787738;80;27522;-71
2023/04/27 08:24:07;;;;;;;9.25;4.17;;;;;;;19.26;35.94;100471.90;1819749;78;25541;-72
2023/04/27 08:26:34;;;;;;;10.90;5.03;;;;;;;19.25;36.70;100476.38;1787533;80;25547;-72
2023/04/27 08:29:03;;;;;;;12.68;5.35;;;;;;;19.45;36.01;100475.77;1819733;78;25553;-67
2023/04/27 08:31:29;;;;;;;9.68;4.78;;;;;;;19.37;35.44;100477.56;1787526;80;25580;-66
2023/04/27 08:33:57;;;;;;;12.13;4.33;;;;;;;19.22;34.83;100477.87;1819744;78;28172;-66
2023/04/27 08:36:27;;;;;;;14.65;4.62;;;;;;;19.24;34.68;100478.33;1787366;80;25360;-66
2023/04/27 08:38:55;;;;;;;9.23;5.15;;;;;;;19.26;35.65;100470.53;1819791;78;25553;-68
2023/04/27 08:41:23;;;;;;;14.85;6.17;;;;;;;19.43;35.17;100467.89;1787451;80;25527;-67
2023/04/27 08:43:52;;;;;;;10.65;4.58;;;;;;;18.99;34.79;100467.67;1819937;78;25611;-67
2023/04/27 08:46:22;;;;;;;7.27;4.57;;;;;;;18.43;33.96;100468.05;1787676;80;27461;-70
2023/04/27 08:48:52;;;;;;;12.07;5.30;;;;;;;17.51;32.78;100465.46;1810551;78;25246;-71
2023/04/27 08:51:21;;;;;;;;;;;;;;;16.81;34.52;100467.47;1789988;80;25530;-71
2023/04/27 08:53:52;;;;;;;11.53;5.87;;;;;;;16.29;35.12;100470.21;1787437;80;25621;-71
2023/04/27 08:56:23;;;;;;;13.45;6.28;;;;;;;15.81;35.48;100465.80;1803916;79;25623;-71
2023/04/27 08:58:52;;;;;;;13.13;5.50;;;;;;;15.35;36.41;100471.83;1787347;80;28033;-71
2023/04/27 09:01:21;;;;;;;9.13;4.95;;;;;;;14.86;36.36;100481.95;1787110;79;25244;-71
2023/04/27 09:03:47;;;;;;;;;;;;;;;14.25;36.87;100481.81;1760859;80;25676;-71
2023/04/27 09:06:15;;;;;;;9.38;5.58;;;;;;;13.74;37.24;100479.00;1756552;81;25475;-71
2023/04/27 09:08:47;;;;;;;8.10;5.30;;;;;;;13.23;38.60;100482.86;1756786;81;25405;-71
2023/04/27 09:11:31;;;;;;;11.83;6.65;;;;;;;12.84;39.79;100495.50;1756676;81;27529;-71
2023/04/27 09:14:02;;;;;;;12.00;6.25;;;;;;;12.51;40.96;100493.78;1756568;81;25737;-71
2023/04/27 09:16:30;;;;;;;16.27;14.58;;;;;;;12.14;42.14;100498.09;1756587;81;25574;-70
2023/04/27 09:19:00;;;;;;;13.83;9.48;;;;;;;11.81;43.30;100494.10;1756558;81;25928;-71
2023/04/27 09:21:30;;;;;;;46.25;42.83;;;;;;;11.55;43.87;100486.08;1756604;81;25571;-70
2023/04/27 09:23:57;;;;;;;18.82;17.00;;;;;;;11.43;45.09;100479.66;1756542;81;27471;-70
2023/04/27 09:26:27;;;;;;;12.47;6.70;;;;;;;11.42;46.33;100484.81;1756325;81;25445;-69
2023/04/27 09:28:56;;;;;;;78.07;72.27;;;;;;;11.44;46.97;100476.64;1756505;81;25385;-68
2023/04/27 09:31:37;;;;;;;77.55;71.80;;;;;;;11.45;47.04;100481.49;1756318;81;25430;-67
2023/04/27 09:34:04;;;;;;;7.25;5.35;;;;;;;11.41;47.76;100475.89;1756580;81;25449;-68
2023/04/27 09:36:31;;;;;;;9.93;5.72;;;;;;;11.36;46.98;100475.47;1756521;81;27561;-68
2023/04/27 09:39:03;;;;;;;11.78;6.10;;;;;;;11.30;47.04;100474.55;1756561;81;25386;-67
2023/04/27 09:41:34;;;;;;;9.30;4.72;;;;;;;11.20;46.68;100482.36;1756580;81;25607;-68
2023/04/27 09:44:03;;;;;;;9.10;4.85;;;;;;;11.13;47.10;100484.70;1756434;81;25387;-63
2023/04/27 09:46:33;;;;;;;80.47;74.87;;;;;;;11.05;47.83;100473.25;1756771;81;25451;-64
2023/04/27 09:49:04;;;;;;;8.48;4.30;;;;;;;10.94;47.51;100475.41;1756985;81;26996;-64
2023/04/27 09:51:31;;;;;;;17.57;15.00;;;;;;;10.91;47.78;100479.52;1756905;81;25646;-65
2023/04/27 09:54:03;;;;;;;43.92;40.20;;;;;;;10.82;47.84;100474.03;1756539;81;25469;-64
2023/04/27 09:56:57;;;;;;;13.05;6.75;;;;;;;10.75;48.04;100475.02;1756453;81;25619;-64
2023/04/27 09:59:39;;;;;;;12.80;6.72;;;;;;;10.78;48.52;100475.77;1756683;81;25195;-64
2023/04/27 10:02:13;;;;;;;11.08;6.58;;;;;;;10.79;48.73;100482.77;1761380;79;27498;-63
2023/04/27 10:05:08;;;;;;;14.00;6.78;;;;;;;10.79;48.12;100484.11;1812737;79;25714;-63
2023/04/27 10:07:40;;;;;;;8.45;4.90;;;;;;;10.74;47.88;100481.52;1796348;79;25395;-64
2023/04/27 10:10:19;;;;;;;5.03;4.30;;;;;;;10.66;47.89;100486.33;1812750;79;25857;-65
2023/04/27 10:13:01;;;;;;;9.10;4.72;;;;;;;10.65;47.81;100482.80;1796467;79;25611;-66
2023/04/27 10:15:29;;;;;;;5.40;4.40;;;;;;;10.64;47.52;100480.40;1812724;79;29616;-64
2023/04/27 10:18:06;;;;;;;7.87;4.78;;;;;;;10.72;48.04;100486.45;1796171;79;25534;-63
2023/04/27 10:20:39;;;;;;;9.35;4.60;;;;;;;10.96;48.03;100486.72;1812717;79;25381;-63
2023/04/27 10:23:06;;;;;;;7.97;4.83;;;;;;;11.25;47.32;100484.15;1796229;79;25470;-64
2023/04/27 10:25:41;;;;;;;6.87;3.80;;;;;;;11.67;48.14;100477.94;1812683;79;25388;-63
2023/04/27 10:28:16;;;;;;;13.80;6.83;;;;;;;12.40;47.23;100478.38;1796166;79;27542;-63
2023/04/27 10:30:48;;;;;;;5.55;4.12;;;;;;;12.64;45.60;100482.55;1812597;79;25608;-64
2023/04/27 10:33:20;;;;;;;5.35;3.90;;;;;;;12.49;44.97;100483.80;1796199;79;25493;-58
2023/04/27 10:35:59;;;;;;;37.78;21.73;;;;;;;12.30;43.80;100486.23;1812695;79;25444;-63
2023/04/27 10:38:30;;;;;;;8.60;6.17;;;;;;;12.12;43.86;100483.23;1796255;79;25615;-61
2023/04/27 10:41:02;;;;;;;9.70;5.28;;;;;;;11.90;44.14;100486.26;1812697;79;28070;-65
2023/04/27 10:43:33;;;;;;;6.58;4.00;;;;;;;11.80;44.15;100485.72;1796056;79;25610;-65
2023/04/27 10:46:14;;;;;;;8.63;4.80;;;;;;;11.67;44.13;100479.30;1812807;79;25577;-65
2023/04/27 10:48:44;;;;;;;9.80;4.42;;;;;;;11.56;44.63;100490.40;1796195;79;25555;-64
2023/04/27 10:51:16;;;;;;;6.87;4.53;;;;;;;11.53;44.58;100485.59;1812696;79;25537;-65
2023/04/27 10:53:42;;;;;;;8.55;4.42;;;;;;;11.46;44.98;100485.78;1796200;79;27498;-66
2023/04/27 10:56:11;;;;;;;8.70;4.37;;;;;;;11.49;44.87;100492.76;1812595;79;25679;-66
2023/04/27 10:58:40;;;;;;;6.08;4.00;;;;;;;11.48;44.76;100488.44;1796322;79;25404;-65
2023/04/27 11:01:08;;;;;;;7.83;4.03;;;;;;;11.42;44.18;100483.45;1812675;79;25544;-66
2023/04/27 11:03:35;;;;;;;6.20;3.98;;;;;;;11.42;44.63;100484.81;1792515;79;25474;-66
2023/04/27 11:06:07;;;;;;;4.90;3.30;;;;;;;11.40;44.20;100477.78;1790058;80;27605;-66
2023/04/27 11:08:44;;;;;;;8.93;4.67;;;;;;;11.36;43.95;100484.16;1789987;79;25625;-67
2023/04/27 11:11:16;;;;;;;9.33;4.08;;;;;;;11.34;44.46;100483.10;1809612;79;25412;-68
2023/04/27 11:13:48;;;;;;;8.40;5.08;;;;;;;11.43;44.53;100484.51;1790054;80;25402;-66
2023/04/27 11:16:18;;;;;;;8.08;5.80;;;;;;;11.47;44.64;100490.09;1790173;79;25424;-65
2023/04/27 11:18:44;;;;;;;9.75;4.40;;;;;;;11.58;44.98;100488.17;1790146;80;27733;-67
2023/04/27 11:21:23;;;;;;;7.87;3.92;;;;;;;11.67;44.39;100487.42;1789902;80;25577;-66
2023/04/27 11:23:49;;;;;;;4.62;3.52;;;;;;;11.67;44.15;100488.78;1790268;80;25541;-66
2023/04/27 11:26:25;;;;;;;12.20;3.90;;;;;;;11.66;43.85;100493.94;1789950;80;25586;-66
2023/04/27 11:29:12;;;;;;;8.90;3.45;;;;;;;11.56;44.04;100503.95;1809508;79;25578;-65
2023/04/27 11:31:47;;;;;;;7.37;4.40;;;;;;;11.44;43.96;100510.49;1790179;80;27623;-66
2023/04/27 11:34:21;;;;;;;8.90;4.58;;;;;;;11.28;43.64;100513.32;1809434;79;25544;-65
2023/04/27 11:37:02;;;;;;;7.72;4.28;;;;;;;11.11;43.72;100493.69;1790074;80;25601;-68
2023/04/27 11:39:36;;;;;;;7.37;3.67;;;;;;;11.02;44.13;100505.81;1789435;80;25614;-66
2023/04/27 11:42:27;;;;;;;7.30;4.05;;;;;;;10.91;44.58;100514.70;1790131;79;25400;-66
2023/04/27 11:45:06;;;;;;;6.42;3.90;;;;;;;10.82;45.56;100513.27;1790109;80;27542;-67
2023/04/27 11:47:34;;;;;;;7.67;3.98;;;;;;;10.73;46.07;100520.52;1790161;80;25545;-65
2023/04/27 11:50:08;;;;;;;8.18;4.05;;;;;;;10.53;46.79;100514.99;1790157;79;25629;-65
2023/04/27 11:52:40;;;;;;;7.05;3.75;;;;;;;10.33;47.42;100512.16;1809642;79;25566;-67
2023/04/27 11:55:14;;;;;;;6.35;3.50;;;;;;;10.24;47.74;100507.19;1790253;80;25637;-68
2023/04/27 11:57:39;;;;;;;4.62;3.77;;;;;;;10.26;48.54;100504.41;1789924;80;26892;-67
2023/04/27 12:00:13;;;;;;;7.25;5.30;;;;;;;10.32;48.13;100505.69;1790070;80;25449;-67
2023/04/27 12:02:41;;;;;;;4.62;3.55;;;;;;;10.33;48.08;100505.95;1789996;79;25455;-66
2023/04/27 12:05:12;;;;;;;4.77;3.40;;;;;;;10.28;47.91;100499.53;1787387;80;25794;-67
2023/04/27 12:07:39;;;;;;;6.15;3.55;;;;;;;10.29;47.70;100507.08;1806850;79;25394;-66
2023/04/27 12:10:08;;;;;;;7.90;3.12;;;;;;;10.31;47.73;100502.17;1787100;80;29609;-66
2023/04/27 12:12:35;;;;;;;4.53;3.10;;;;;;;10.31;47.40;100502.17;1787057;80;25403;-66
2023/04/27 12:15:01;;;;;;;6.42;3.37;;;;;;;10.35;47.18;100500.51;1787119;80;25391;-66
2023/04/27 12:17:28;;;;;;;3.87;2.87;;;;;;;10.44;47.21;100507.36;1787086;80;25548;-68
2023/04/27 12:19:55;;;;;;;6.33;2.90;;;;;;;10.51;46.51;100487.45;1787199;80;25393;-67
2023/04/27 12:22:21;;;;;;;6.03;2.85;;;;;;;10.55;45.64;100497.11;1806825;79;27521;-68
2023/04/27 12:24:48;;;;;;;5.10;2.60;;;;;;;10.58;45.17;100495.95;1787173;80;27294;-67
2023/04/27 12:27:14;;;;;;;4.25;2.33;;;;;;;10.72;45.68;100494.56;1806872;79;25456;-68